Time;durP1;ratioP1;P1;durP2;ratioP2;P2;SDS_P1;SDS_P2;PMS_P1;PMS_P2;Temp;Humidity;BMP_temperature;BMP_pressure;BME280_temperature;BME280_humidity;BME280_pressure;Samples;Min_cycle;Max_cycle;Signal;HPM_P1;HPM_P2
2024/04/21 00:00:19;;;;;;;3.80;0.73;;;;;19.20;100934.00;;;;2225228;26;20349;-58
2024/04/21 00:01:20;;;;;;;2.73;0.50;;;;;19.20;100933.00;;;;2225548;26;20284;-55
2024/04/21 00:02:20;;;;;;;2.88;0.70;;;;;19.20;100939.00;;;;2215669;26;20323;-57
2024/04/21 00:03:20;;;;;;;2.50;0.70;;;;;19.20;100924.00;;;;2225110;26;20340;-58
2024/04/21 00:04:21;;;;;;;2.23;0.70;;;;;19.20;100932.00;;;;2230287;26;20250;-58
2024/04/21 00:05:21;;;;;;;2.37;0.50;;;;;19.20;100978.00;;;;2225452;26;20301;-57
2024/04/21 00:06:22;;;;;;;4.00;0.70;;;;;19.20;100935.00;;;;2228063;26;20749;-57
2024/04/21 00:07:22;;;;;;;2.20;0.80;;;;;19.20;100933.00;;;;2221378;26;21113;-57
2024/04/21 00:08:22;;;;;;;2.33;0.73;;;;;19.20;100936.00;;;;2221843;26;20727;-57
2024/04/21 00:09:23;;;;;;;2.20;0.60;;;;;19.20;100945.00;;;;2218447;26;20251;-57
2024/04/21 00:10:23;;;;;;;1.80;0.60;;;;;19.10;100942.00;;;;2218938;26;21144;-58
2024/04/21 00:11:23;;;;;;;2.40;0.70;;;;;19.10;100940.00;;;;2216771;26;20255;-57
2024/04/21 00:12:24;;;;;;;2.23;0.80;;;;;19.10;100935.00;;;;2213147;26;20262;-58
2024/04/21 00:13:24;;;;;;;3.07;0.60;;;;;19.20;100940.00;;;;2222313;26;20350;-57
2024/04/21 00:14:24;;;;;;;4.47;1.00;;;;;19.10;100940.00;;;;2214830;26;20255;-58
2024/04/21 00:15:24;;;;;;;1.97;0.60;;;;;19.20;100943.00;;;;2218623;26;20249;-58
2024/04/21 00:16:25;;;;;;;4.43;0.80;;;;;19.20;100929.00;;;;2219550;26;20288;-57
2024/04/21 00:17:25;;;;;;;2.10;0.70;;;;;19.10;100937.00;;;;2218122;26;20248;-58
2024/04/21 00:18:25;;;;;;;2.57;0.67;;;;;19.10;100928.00;;;;2223708;26;20678;-57
2024/04/21 00:19:26;;;;;;;2.23;0.73;;;;;19.10;100933.00;;;;2214711;26;20568;-57
2024/04/21 00:20:26;;;;;;;2.00;0.57;;;;;19.10;100934.00;;;;2225624;26;20362;-57
2024/04/21 00:21:28;;;;;;;3.03;0.70;;;;;19.20;100935.00;;;;2213194;26;20666;-59
2024/04/21 00:22:28;;;;;;;2.70;0.70;;;;;19.10;100930.00;;;;2218030;26;20918;-57
2024/04/21 00:23:29;;;;;;;2.90;0.80;;;;;19.10;100917.00;;;;2222485;26;20308;-57
2024/04/21 00:24:30;;;;;;;3.80;0.60;;;;;19.10;100932.00;;;;2221877;26;20248;-58
2024/04/21 00:25:30;;;;;;;1.50;0.60;;;;;19.10;100912.00;;;;2226742;26;20634;-57
2024/04/21 00:26:31;;;;;;;2.57;0.90;;;;;19.10;100919.00;;;;2213101;26;20251;-57
2024/04/21 00:27:31;;;;;;;2.80;0.80;;;;;19.10;100925.00;;;;2218502;26;20263;-58
2024/04/21 00:28:31;;;;;;;2.80;0.80;;;;;19.10;100922.00;;;;2217876;26;20591;-58
2024/04/21 00:29:32;;;;;;;3.37;0.80;;;;;19.10;100925.00;;;;2218556;26;20302;-58
2024/04/21 00:30:32;;;;;;;4.63;0.80;;;;;19.10;100922.00;;;;2219830;26;20254;-57
2024/04/21 00:31:33;;;;;;;2.47;0.60;;;;;19.10;100924.00;;;;2207738;26;20255;-57
2024/04/21 00:32:33;;;;;;;2.37;0.70;;;;;19.10;100918.00;;;;2216849;26;20916;-58
2024/04/21 00:33:33;;;;;;;2.10;0.60;;;;;19.10;100917.00;;;;2217545;26;20669;-57
2024/04/21 00:34:34;;;;;;;2.23;0.80;;;;;19.10;100935.00;;;;2214405;26;20259;-57
2024/04/21 00:35:34;;;;;;;2.13;0.70;;;;;19.10;100917.00;;;;2217653;26;20255;-58
2024/04/21 00:36:34;;;;;;;3.37;0.83;;;;;19.10;100843.00;;;;2209857;26;20260;-57
2024/04/21 00:37:35;;;;;;;2.00;0.60;;;;;19.10;100917.00;;;;2230928;26;20913;-57
2024/04/21 00:38:35;;;;;;;3.53;0.70;;;;;19.10;100912.00;;;;2220935;26;20267;-57
2024/04/21 00:39:35;;;;;;;1.97;0.70;;;;;19.10;100903.00;;;;2225376;26;20253;-57
2024/04/21 00:40:36;;;;;;;2.23;0.77;;;;;19.10;100910.00;;;;2217800;26;20301;-57
2024/04/21 00:41:36;;;;;;;1.97;0.80;;;;;19.10;100919.00;;;;2211014;26;20250;-57
2024/04/21 00:42:37;;;;;;;1.70;0.50;;;;;19.10;100915.00;;;;2222398;26;20255;-58
2024/04/21 00:43:37;;;;;;;2.30;0.60;;;;;19.10;100913.00;;;;2224975;26;20303;-58
2024/04/21 00:44:38;;;;;;;3.70;0.60;;;;;19.10;100916.00;;;;2219458;26;20530;-57
2024/04/21 00:45:40;;;;;;;2.47;0.50;;;;;19.10;100914.00;;;;2217577;26;20247;-57
2024/04/21 00:46:40;;;;;;;2.30;0.70;;;;;19.10;100914.00;;;;2215782;26;20317;-58
2024/04/21 00:47:41;;;;;;;2.03;0.63;;;;;19.10;100918.00;;;;2230156;26;20761;-57
2024/04/21 00:48:41;;;;;;;1.70;0.60;;;;;19.00;100909.00;;;;2210661;26;21230;-58
2024/04/21 00:49:42;;;;;;;2.60;0.70;;;;;19.00;100891.00;;;;2204919;26;20370;-58
2024/04/21 00:50:45;;;;;;;1.85;0.68;;;;;19.10;100907.00;;;;2225857;26;20285;-58
2024/04/21 00:51:46;;;;;;;5.57;0.70;;;;;19.10;100909.00;;;;2205375;26;20241;-57
2024/04/21 00:52:47;;;;;;;2.13;0.70;;;;;19.10;100908.00;;;;2223771;26;20263;-58
2024/04/21 00:53:47;;;;;;;1.60;0.60;;;;;19.10;100917.00;;;;2200838;26;20306;-57
2024/04/21 00:54:48;;;;;;;1.83;0.63;;;;;19.10;100908.00;;;;2218051;26;20620;-58
2024/04/21 00:55:48;;;;;;;4.30;0.73;;;;;19.10;100906.00;;;;2216501;26;20263;-58
2024/04/21 00:56:48;;;;;;;2.30;0.97;;;;;19.10;100906.00;;;;2190014;26;20310;-58
2024/04/21 00:57:49;;;;;;;3.10;1.00;;;;;19.10;100905.00;;;;2214671;26;20259;-57
2024/04/21 00:58:51;;;;;;;2.40;0.70;;;;;19.10;100912.00;;;;2214941;26;20364;-58
2024/04/21 00:59:51;;;;;;;2.30;0.75;;;;;19.10;100908.00;;;;2214600;26;20255;-57
2024/04/21 01:00:52;;;;;;;1.97;0.60;;;;;19.00;100912.00;;;;2204259;26;20356;-57
2024/04/21 01:01:52;;;;;;;2.80;0.80;;;;;19.00;100907.00;;;;2190627;26;20304;-57
2024/04/21 01:02:52;;;;;;;2.70;0.63;;;;;19.00;100959.00;;;;2201930;26;20724;-58
2024/04/21 01:03:53;;;;;;;2.33;0.57;;;;;19.00;100907.00;;;;2199756;26;20900;-57
2024/04/21 01:04:53;;;;;;;2.80;0.70;;;;;19.10;100901.00;;;;2215368;26;20727;-58
2024/04/21 01:05:53;;;;;;;2.07;0.60;;;;;19.10;100901.00;;;;2204038;26;20259;-58
2024/04/21 01:06:54;;;;;;;5.93;0.90;;;;;19.10;100905.00;;;;2230592;26;20690;-58
2024/04/21 01:07:55;;;;;;;2.77;0.80;;;;;19.10;100907.00;;;;2222281;26;20473;-57
2024/04/21 01:08:55;;;;;;;2.70;0.90;;;;;19.10;100910.00;;;;2224600;26;20285;-58
2024/04/21 01:09:55;;;;;;;1.93;0.60;;;;;19.10;100906.00;;;;2217903;26;20290;-57
2024/04/21 01:10:56;;;;;;;2.50;0.63;;;;;19.00;100905.00;;;;2217604;26;20247;-58
2024/04/21 01:11:56;;;;;;;1.90;0.50;;;;;19.00;100909.00;;;;2219590;26;20246;-57
2024/04/21 01:12:56;;;;;;;2.07;0.63;;;;;19.00;100901.00;;;;2220869;26;20295;-58
2024/04/21 01:13:57;;;;;;;4.43;1.00;;;;;19.00;100904.00;;;;2222609;26;20248;-58
2024/04/21 01:14:57;;;;;;;2.03;0.70;;;;;19.00;100901.00;;;;2220767;26;20327;-58
2024/04/21 01:15:57;;;;;;;3.23;0.90;;;;;19.00;100901.00;;;;2217754;26;20300;-57
2024/04/21 01:16:58;;;;;;;2.33;0.60;;;;;19.10;100906.00;;;;2205089;26;20263;-58
2024/04/21 01:17:58;;;;;;;3.30;0.60;;;;;19.10;100899.00;;;;2216491;26;20325;-57
2024/04/21 01:18:58;;;;;;;1.87;0.60;;;;;19.00;100895.00;;;;2222098;26;20354;-58
2024/04/21 01:19:59;;;;;;;2.03;0.77;;;;;19.00;100900.00;;;;2227239;26;20253;-57
2024/04/21 01:20:59;;;;;;;2.37;0.70;;;;;19.00;100897.00;;;;2217424;26;20361;-57
2024/04/21 01:21:59;;;;;;;3.60;0.90;;;;;19.00;100901.00;;;;2213424;26;20294;-58
2024/04/21 01:22:59;;;;;;;1.90;0.53;;;;;19.00;100890.00;;;;2217842;26;20302;-58
2024/04/21 01:24:00;;;;;;;4.07;0.90;;;;;19.00;100887.00;;;;2226437;26;20250;-58
2024/04/21 01:25:00;;;;;;;2.77;0.80;;;;;19.00;100892.00;;;;2220704;26;20297;-58
2024/04/21 01:26:00;;;;;;;2.07;0.60;;;;;19.00;100894.00;;;;2217583;26;20254;-58
2024/04/21 01:27:01;;;;;;;2.67;0.60;;;;;19.00;100892.00;;;;2219392;26;20254;-57
2024/04/21 01:28:01;;;;;;;2.20;0.90;;;;;19.00;100889.00;;;;2217893;26;20410;-57
2024/04/21 01:29:01;;;;;;;2.90;0.70;;;;;19.00;100886.00;;;;2215239;26;20302;-57
2024/04/21 01:30:02;;;;;;;2.10;0.70;;;;;19.00;100890.00;;;;2225323;26;20258;-57
2024/04/21 01:31:03;;;;;;;2.47;1.00;;;;;19.00;100891.00;;;;2217384;26;20356;-59
2024/04/21 01:32:03;;;;;;;2.73;0.70;;;;;19.00;100884.00;;;;2215090;26;20258;-59
2024/04/21 01:33:04;;;;;;;2.07;0.80;;;;;19.00;100899.00;;;;2218525;26;20317;-57
2024/04/21 01:34:04;;;;;;;2.17;0.50;;;;;19.00;100893.00;;;;2217560;26;20250;-58
2024/04/21 01:35:05;;;;;;;1.50;0.50;;;;;19.00;100895.00;;;;2219274;26;20367;-57
2024/04/21 01:36:05;;;;;;;2.20;0.70;;;;;19.00;100890.00;;;;2211955;26;20291;-58
2024/04/21 01:37:06;;;;;;;2.73;0.70;;;;;19.00;100889.00;;;;2215960;26;20269;-57
2024/04/21 01:38:06;;;;;;;4.33;0.70;;;;;19.00;100891.00;;;;2216542;26;20310;-58
2024/04/21 01:39:06;;;;;;;2.37;0.70;;;;;19.00;100893.00;;;;2223734;26;20251;-57
2024/04/21 01:40:07;;;;;;;1.93;0.70;;;;;19.00;100892.00;;;;2218173;26;20297;-58
2024/04/21 01:41:07;;;;;;;1.73;0.50;;;;;19.00;100907.00;;;;2215748;26;20310;-57
2024/04/21 01:42:07;;;;;;;2.47;0.70;;;;;19.00;100883.00;;;;2207989;26;20964;-58
2024/04/21 01:43:08;;;;;;;2.20;0.73;;;;;19.00;100891.00;;;;2225992;26;21051;-58
2024/04/21 01:44:08;;;;;;;2.90;0.77;;;;;19.00;100775.00;;;;2217474;26;20854;-58
2024/04/21 01:45:08;;;;;;;3.10;0.70;;;;;19.00;100901.00;;;;2215583;26;20704;-58
2024/04/21 01:46:09;;;;;;;2.40;0.70;;;;;19.00;100891.00;;;;2217616;26;20954;-57
2024/04/21 01:47:09;;;;;;;2.00;0.60;;;;;19.00;100886.00;;;;2208799;26;20626;-57
2024/04/21 01:48:09;;;;;;;2.00;0.70;;;;;19.00;100890.00;;;;2217068;26;20711;-58
2024/04/21 01:49:10;;;;;;;3.10;0.70;;;;;19.00;100884.00;;;;2229422;26;20593;-58
2024/04/21 01:50:10;;;;;;;2.70;0.77;;;;;19.00;100882.00;;;;2229021;26;20700;-57
2024/04/21 01:51:10;;;;;;;2.70;0.73;;;;;19.00;100874.00;;;;2214560;26;20255;-58
2024/04/21 01:52:11;;;;;;;2.17;0.73;;;;;19.00;100881.00;;;;2206710;26;20271;-57
2024/04/21 01:53:11;;;;;;;2.60;0.63;;;;;19.00;100877.00;;;;2224021;26;20481;-58
2024/04/21 01:54:12;;;;;;;2.30;0.67;;;;;19.00;100874.00;;;;2217917;26;20322;-57
2024/04/21 01:55:12;;;;;;;1.60;0.60;;;;;18.90;100872.00;;;;2216740;26;20911;-58
2024/04/21 01:56:12;;;;;;;1.80;0.70;;;;;18.90;100870.00;;;;2231332;26;20698;-58
2024/04/21 01:57:13;;;;;;;3.10;0.80;;;;;19.00;100875.00;;;;2221682;26;20640;-58
2024/04/21 01:58:13;;;;;;;2.50;0.70;;;;;19.00;100873.00;;;;2219545;26;21260;-57
2024/04/21 01:59:14;;;;;;;2.83;0.83;;;;;19.00;100875.00;;;;2218473;26;20251;-57
2024/04/21 02:00:14;;;;;;;2.87;0.63;;;;;19.00;100870.00;;;;2229512;26;20242;-58
2024/04/21 02:01:14;;;;;;;5.00;0.60;;;;;19.00;100871.00;;;;2221886;26;20267;-58
2024/04/21 02:02:15;;;;;;;2.70;0.90;;;;;18.90;100870.00;;;;2209497;26;20306;-57
2024/04/21 02:03:15;;;;;;;3.03;0.80;;;;;18.70;100869.00;;;;2229316;26;20254;-57
2024/04/21 02:04:15;;;;;;;1.73;0.50;;;;;18.90;100875.00;;;;2216177;26;20254;-58
2024/04/21 02:05:16;;;;;;;2.03;0.60;;;;;18.90;100871.00;;;;2224943;26;20338;-58
2024/04/21 02:06:16;;;;;;;2.30;0.60;;;;;18.90;100869.00;;;;2233060;26;20258;-58
2024/04/21 02:07:16;;;;;;;3.60;0.80;;;;;18.90;100864.00;;;;2220166;26;20262;-57
2024/04/21 02:08:17;;;;;;;2.43;0.60;;;;;18.90;100865.00;;;;2231748;26;20259;-57
2024/04/21 02:09:17;;;;;;;2.63;0.70;;;;;18.90;100867.00;;;;2226664;26;21123;-57
2024/04/21 02:10:17;;;;;;;4.20;0.90;;;;;18.90;100863.00;;;;2231657;26;21034;-57
2024/04/21 02:11:18;;;;;;;2.67;0.80;;;;;18.90;100861.00;;;;2218607;26;20820;-57
2024/04/21 02:12:18;;;;;;;2.23;0.60;;;;;18.90;100858.00;;;;2208561;26;20258;-57
2024/04/21 02:13:19;;;;;;;2.90;0.57;;;;;18.90;100859.00;;;;2218145;26;20285;-58
2024/04/21 02:14:19;;;;;;;2.57;0.60;;;;;18.90;100861.00;;;;2220341;26;20259;-57
2024/04/21 02:15:19;;;;;;;1.50;0.50;;;;;18.90;100867.00;;;;2217170;26;20297;-57
2024/04/21 02:16:20;;;;;;;2.07;0.70;;;;;18.90;100857.00;;;;2218909;26;20251;-57
2024/04/21 02:17:20;;;;;;;2.07;0.50;;;;;18.90;100867.00;;;;2209463;26;20256;-57
2024/04/21 02:18:20;;;;;;;3.50;1.00;;;;;18.90;100745.00;;;;2229713;26;20323;-57
2024/04/21 02:19:21;;;;;;;1.67;0.57;;;;;18.90;100871.00;;;;2225996;26;20254;-57
2024/04/21 02:20:21;;;;;;;1.80;0.60;;;;;18.90;100870.00;;;;2220647;26;20255;-58
2024/04/21 02:21:21;;;;;;;1.70;0.53;;;;;18.90;100861.00;;;;2232988;26;20254;-57
2024/04/21 02:22:22;;;;;;;3.27;0.63;;;;;18.90;100875.00;;;;2211245;26;20255;-58
2024/04/21 02:23:22;;;;;;;1.93;0.80;;;;;18.90;100880.00;;;;2228921;26;20300;-57
2024/04/21 02:24:24;;;;;;;2.90;0.73;;;;;18.90;100881.00;;;;2216647;26;20258;-57
2024/04/21 02:25:24;;;;;;;2.75;0.57;;;;;18.90;100873.00;;;;2221403;26;20314;-58
2024/04/21 02:26:25;;;;;;;2.40;0.63;;;;;18.90;100870.00;;;;2217094;26;20774;-58
2024/04/21 02:27:25;;;;;;;1.80;0.83;;;;;18.90;100872.00;;;;2213760;26;20356;-58
2024/04/21 02:28:26;;;;;;;3.60;0.70;;;;;18.90;100868.00;;;;2221573;26;20259;-57
2024/04/21 02:29:26;;;;;;;2.17;0.60;;;;;18.90;100866.00;;;;2217728;26;20263;-57
2024/04/21 02:30:26;;;;;;;2.93;0.60;;;;;18.90;100869.00;;;;2223751;26;20279;-57
2024/04/21 02:31:27;;;;;;;1.60;0.40;;;;;18.90;100865.00;;;;2217498;26;20258;-59
2024/04/21 02:32:28;;;;;;;2.97;0.65;;;;;18.90;100861.00;;;;2232574;26;20262;-57
2024/04/21 02:33:28;;;;;;;2.03;0.60;;;;;18.90;100868.00;;;;2225779;26;20264;-58
2024/04/21 02:34:29;;;;;;;2.30;0.60;;;;;18.90;100867.00;;;;2217347;26;20251;-57
2024/04/21 02:35:29;;;;;;;1.73;0.60;;;;;18.90;100872.00;;;;2217221;26;20247;-58
2024/04/21 02:36:29;;;;;;;1.47;0.50;;;;;18.90;100863.00;;;;2216142;26;20250;-58
2024/04/21 02:37:30;;;;;;;2.20;0.70;;;;;18.90;100870.00;;;;2225333;26;20344;-58
2024/04/21 02:38:30;;;;;;;2.20;0.60;;;;;18.90;100867.00;;;;2222027;26;20362;-57
2024/04/21 02:39:31;;;;;;;2.10;0.60;;;;;18.90;100862.00;;;;2230415;26;20347;-57
2024/04/21 02:40:31;;;;;;;2.43;0.60;;;;;18.90;100860.00;;;;2219155;26;20285;-57
2024/04/21 02:41:31;;;;;;;2.00;0.50;;;;;18.90;100869.00;;;;2215037;26;20300;-57
2024/04/21 02:42:32;;;;;;;3.40;0.50;;;;;18.90;100697.00;;;;2231213;26;20292;-57
2024/04/21 02:43:32;;;;;;;5.07;1.00;;;;;18.90;100859.00;;;;2219366;26;20255;-57
2024/04/21 02:44:32;;;;;;;2.47;0.57;;;;;18.90;100868.00;;;;2219343;26;20633;-58
2024/04/21 02:45:33;;;;;;;3.90;0.60;;;;;18.90;100850.00;;;;2229946;26;20243;-57
2024/04/21 02:46:33;;;;;;;2.17;0.63;;;;;18.90;100854.00;;;;2206752;26;20247;-57
2024/04/21 02:47:33;;;;;;;1.77;0.70;;;;;18.90;100854.00;;;;2219779;26;20243;-57
2024/04/21 02:48:34;;;;;;;1.87;0.70;;;;;18.90;100859.00;;;;2220789;26;21023;-57
2024/04/21 02:49:34;;;;;;;1.63;0.60;;;;;18.90;100868.00;;;;2217877;26;20788;-57
2024/04/21 02:50:35;;;;;;;2.83;0.70;;;;;18.90;100858.00;;;;2222942;26;20742;-57
2024/04/21 02:51:35;;;;;;;2.40;0.73;;;;;18.90;100858.00;;;;2215428;26;20414;-58
2024/04/21 02:52:35;;;;;;;3.83;0.77;;;;;18.90;100862.00;;;;2219563;26;20245;-57
2024/04/21 02:53:36;;;;;;;1.70;0.50;;;;;18.80;100848.00;;;;2230923;26;20258;-58
2024/04/21 02:54:36;;;;;;;1.70;0.60;;;;;18.90;100850.00;;;;2228147;26;20284;-58
2024/04/21 02:55:42;;;;;;;3.77;0.60;;;;;18.80;100839.00;;;;2224431;26;20263;-57
2024/04/21 02:56:43;;;;;;;2.50;0.70;;;;;18.80;100857.00;;;;2213569;26;21010;-57
2024/04/21 02:57:43;;;;;;;4.47;1.07;;;;;18.80;100859.00;;;;2220033;26;20377;-57
2024/04/21 02:58:43;;;;;;;2.13;0.57;;;;;18.80;100861.00;;;;2226472;26;20262;-57
2024/04/21 02:59:44;;;;;;;2.37;0.70;;;;;18.80;100862.00;;;;2218796;26;20306;-57
2024/04/21 03:00:44;;;;;;;1.80;0.63;;;;;18.80;100843.00;;;;2219211;26;20284;-57
2024/04/21 03:01:47;;;;;;;1.73;0.50;;;;;18.80;100850.00;;;;2205028;26;20253;-57
2024/04/21 03:02:48;;;;;;;3.15;0.90;;;;;18.80;100851.00;;;;2223820;26;20322;-58
2024/04/21 03:03:48;;;;;;;2.87;0.70;;;;;18.80;100851.00;;;;2223636;26;20694;-57
2024/04/21 03:04:49;;;;;;;2.80;0.73;;;;;18.80;100838.00;;;;2215066;26;21279;-58
2024/04/21 03:05:55;;;;;;;2.77;0.53;;;;;18.40;100851.00;;;;2223874;26;20251;-57
2024/04/21 03:06:56;;;;;;;4.22;0.50;;;;;18.80;100848.00;;;;2208407;26;20778;-57
2024/04/21 03:07:57;;;;;;;2.90;0.60;;;;;18.80;100839.00;;;;2230751;26;20289;-57
2024/04/21 03:08:57;;;;;;;2.65;0.80;;;;;18.80;100851.00;;;;2221535;26;20286;-57
2024/04/21 03:09:58;;;;;;;2.37;0.50;;;;;18.80;100851.00;;;;2222634;26;20335;-57
2024/04/21 03:10:58;;;;;;;3.30;0.83;;;;;18.80;100844.00;;;;2232670;26;20297;-57
2024/04/21 03:11:58;;;;;;;7.00;0.70;;;;;18.80;100837.00;;;;2213274;26;20258;-57
2024/04/21 03:12:59;;;;;;;2.20;0.53;;;;;18.80;100845.00;;;;2231696;26;20320;-58
2024/04/21 03:13:59;;;;;;;1.87;0.50;;;;;18.80;100845.00;;;;2226633;26;20263;-57
2024/04/21 03:14:59;;;;;;;1.80;0.50;;;;;18.80;100839.00;;;;2218546;26;20255;-58
2024/04/21 03:16:03;;;;;;;2.10;0.53;;;;;18.80;100847.00;;;;2230509;26;20266;-57
2024/04/21 03:17:04;;;;;;;2.15;0.60;;;;;18.80;100849.00;;;;2211004;26;20326;-57
2024/04/21 03:18:04;;;;;;;2.10;0.47;;;;;18.80;100836.00;;;;2218445;26;21061;-58
2024/04/21 03:19:04;;;;;;;2.30;0.70;;;;;18.80;100835.00;;;;2217437;26;20902;-58
2024/04/21 03:20:05;;;;;;;1.57;0.50;;;;;18.80;100833.00;;;;2220199;26;20278;-57
2024/04/21 03:21:06;;;;;;;2.05;0.50;;;;;18.80;100844.00;;;;2219396;26;20828;-58
2024/04/21 03:22:06;;;;;;;3.47;0.60;;;;;18.80;100843.00;;;;2206923;26;20263;-57
2024/04/21 03:23:07;;;;;;;3.00;0.60;;;;;18.80;100845.00;;;;2218468;26;20251;-57
2024/04/21 03:24:07;;;;;;;2.23;0.50;;;;;18.80;100846.00;;;;2225039;26;20246;-57
2024/04/21 03:25:07;;;;;;;3.37;0.70;;;;;18.80;100846.00;;;;2219022;26;20251;-57
2024/04/21 03:26:08;;;;;;;3.07;0.77;;;;;18.80;100852.00;;;;2227996;26;20329;-58
2024/04/21 03:27:08;;;;;;;2.60;0.53;;;;;18.80;100839.00;;;;2209596;26;20816;-58
2024/04/21 03:28:08;;;;;;;1.40;0.40;;;;;18.80;100832.00;;;;2217740;26;20704;-57
2024/04/21 03:29:09;;;;;;;2.90;0.60;;;;;18.80;100843.00;;;;2227109;26;20273;-58
2024/04/21 03:30:09;;;;;;;2.97;0.60;;;;;18.80;100833.00;;;;2227063;26;20341;-57
2024/04/21 03:31:10;;;;;;;2.17;0.50;;;;;18.80;100844.00;;;;2218516;26;20262;-57
2024/04/21 03:32:10;;;;;;;2.20;0.60;;;;;18.80;100831.00;;;;2208810;26;20856;-58
2024/04/21 03:33:10;;;;;;;2.57;0.80;;;;;18.80;100836.00;;;;2228053;26;20298;-58
2024/04/21 03:34:11;;;;;;;3.77;0.80;;;;;18.80;100843.00;;;;2230625;26;20250;-57
2024/04/21 03:35:11;;;;;;;2.70;0.60;;;;;18.80;100831.00;;;;2216943;26;20285;-58
2024/04/21 03:36:11;;;;;;;2.27;0.60;;;;;18.80;100832.00;;;;2229583;26;20265;-58
2024/04/21 03:37:12;;;;;;;2.13;0.43;;;;;18.40;100836.00;;;;2204094;26;20332;-58
2024/04/21 03:38:12;;;;;;;1.83;0.40;;;;;18.50;100829.00;;;;2221666;26;20304;-58
2024/04/21 03:39:12;;;;;;;1.90;0.70;;;;;18.80;100831.00;;;;2216513;26;20255;-58
2024/04/21 03:40:13;;;;;;;2.37;0.50;;;;;18.80;100835.00;;;;2217797;26;20584;-58
2024/04/21 03:41:13;;;;;;;2.70;0.60;;;;;18.80;100883.00;;;;2225239;26;20300;-57
2024/04/21 03:42:13;;;;;;;2.00;0.57;;;;;18.80;100832.00;;;;2207492;26;20736;-58
2024/04/21 03:43:14;;;;;;;2.00;0.40;;;;;18.80;100834.00;;;;2223278;26;21501;-58
2024/04/21 03:44:14;;;;;;;2.37;0.63;;;;;18.80;100835.00;;;;2217630;26;20298;-57
2024/04/21 03:45:14;;;;;;;2.33;0.60;;;;;18.80;100836.00;;;;2218552;26;20243;-58
2024/04/21 03:46:15;;;;;;;2.00;0.40;;;;;18.80;100828.00;;;;2226840;26;20419;-58
2024/04/21 03:47:15;;;;;;;2.23;0.73;;;;;18.80;100829.00;;;;2220870;26;20312;-58
2024/04/21 03:48:15;;;;;;;2.60;0.60;;;;;18.70;100827.00;;;;2226873;26;20246;-58
2024/04/21 03:49:16;;;;;;;2.37;0.60;;;;;18.80;100833.00;;;;2218154;26;20258;-58
2024/04/21 03:50:16;;;;;;;3.10;0.70;;;;;18.80;100832.00;;;;2220609;26;20247;-57
2024/04/21 03:51:16;;;;;;;2.27;0.50;;;;;18.70;100834.00;;;;2225574;26;20247;-58
2024/04/21 03:52:17;;;;;;;3.00;0.60;;;;;18.70;100829.00;;;;2206847;26;20703;-61
2024/04/21 03:53:17;;;;;;;3.10;0.60;;;;;18.70;100837.00;;;;2218797;26;20255;-59
2024/04/21 03:54:18;;;;;;;2.50;0.70;;;;;18.80;100847.00;;;;2217414;26;20250;-58
2024/04/21 03:55:18;;;;;;;2.90;0.50;;;;;18.70;100838.00;;;;2210061;26;20263;-58
2024/04/21 03:56:18;;;;;;;2.57;0.70;;;;;18.80;100849.00;;;;2219607;26;20255;-58
2024/04/21 03:57:19;;;;;;;2.83;0.40;;;;;18.50;100837.00;;;;2215945;26;20296;-59
2024/04/21 03:58:19;;;;;;;3.10;0.43;;;;;18.70;100838.00;;;;2218999;26;20263;-58
2024/04/21 03:59:19;;;;;;;1.57;0.50;;;;;18.70;100834.00;;;;2218425;26;20294;-57
2024/04/21 04:00:20;;;;;;;1.57;0.60;;;;;18.80;100837.00;;;;2221596;26;20252;-58
2024/04/21 04:01:20;;;;;;;1.57;0.43;;;;;18.80;100838.00;;;;2222182;26;20309;-57
2024/04/21 04:02:20;;;;;;;4.00;0.60;;;;;18.80;100848.00;;;;2216691;26;20255;-57
2024/04/21 04:03:21;;;;;;;3.13;0.60;;;;;18.70;100857.00;;;;2218179;26;20262;-58
2024/04/21 04:04:21;;;;;;;2.57;0.60;;;;;18.70;100859.00;;;;2216583;26;20258;-58
2024/04/21 04:05:21;;;;;;;1.60;0.50;;;;;18.70;100851.00;;;;2231280;26;20292;-58
2024/04/21 04:06:23;;;;;;;2.30;0.60;;;;;18.70;100854.00;;;;2220399;26;20262;-58
2024/04/21 04:07:24;;;;;;;2.22;0.70;;;;;18.80;100856.00;;;;2217324;26;20296;-58
2024/04/21 04:08:24;;;;;;;2.07;0.50;;;;;18.70;100848.00;;;;2217507;26;20298;-58
2024/04/21 04:09:25;;;;;;;1.60;0.60;;;;;18.70;100849.00;;;;2227639;26;20337;-58
2024/04/21 04:10:25;;;;;;;2.10;0.50;;;;;18.70;100847.00;;;;2229966;26;20290;-57
2024/04/21 04:11:25;;;;;;;2.37;0.70;;;;;18.80;100847.00;;;;2214707;26;20297;-57
2024/04/21 04:12:26;;;;;;;4.20;0.57;;;;;18.70;100848.00;;;;2220253;26;20255;-57
2024/04/21 04:13:26;;;;;;;2.60;0.53;;;;;18.70;100849.00;;;;2219939;26;20301;-58
2024/04/21 04:14:26;;;;;;;1.50;0.50;;;;;18.70;100847.00;;;;2218848;26;20252;-57
2024/04/21 04:15:26;;;;;;;2.33;0.57;;;;;18.70;100855.00;;;;2216854;26;20259;-57
2024/04/21 04:16:27;;;;;;;2.70;0.57;;;;;18.70;100850.00;;;;2206711;26;20301;-59
2024/04/21 04:17:27;;;;;;;2.30;0.73;;;;;18.70;100850.00;;;;2218703;26;20258;-57
2024/04/21 04:18:28;;;;;;;2.57;0.60;;;;;18.70;100844.00;;;;2229941;26;20583;-57
2024/04/21 04:19:28;;;;;;;1.90;0.60;;;;;18.70;100844.00;;;;2218354;26;20251;-58
2024/04/21 04:20:28;;;;;;;2.00;0.50;;;;;18.70;100844.00;;;;2218672;26;20379;-57
2024/04/21 04:21:29;;;;;;;2.10;0.57;;;;;18.70;100845.00;;;;2218576;26;20992;-58
2024/04/21 04:22:29;;;;;;;2.60;0.57;;;;;18.70;100843.00;;;;2220541;26;20259;-57
2024/04/21 04:23:29;;;;;;;1.60;0.40;;;;;18.70;100844.00;;;;2227898;26;20291;-57
2024/04/21 04:24:29;;;;;;;3.10;0.90;;;;;18.70;100845.00;;;;2220703;26;20252;-57
2024/04/21 04:25:30;;;;;;;3.00;0.60;;;;;18.70;100844.00;;;;2222859;26;20247;-58
2024/04/21 04:26:30;;;;;;;1.90;0.60;;;;;18.70;100847.00;;;;2208574;26;20344;-57
2024/04/21 04:27:31;;;;;;;2.83;0.67;;;;;18.70;100844.00;;;;2229445;26;20350;-58
2024/04/21 04:28:31;;;;;;;2.10;0.60;;;;;18.70;100845.00;;;;2222338;26;20357;-57
2024/04/21 04:29:32;;;;;;;1.83;0.63;;;;;18.70;100844.00;;;;2227393;26;20520;-58
2024/04/21 04:30:32;;;;;;;2.07;0.63;;;;;18.70;100844.00;;;;2226007;26;20292;-58
2024/04/21 04:31:32;;;;;;;3.97;0.80;;;;;18.70;100828.00;;;;2211576;26;20409;-58
2024/04/21 04:32:33;;;;;;;2.40;0.80;;;;;18.70;100834.00;;;;2228749;26;20250;-57
2024/04/21 04:33:33;;;;;;;1.97;0.60;;;;;18.70;100832.00;;;;2226080;26;20250;-57
2024/04/21 04:34:33;;;;;;;1.83;0.50;;;;;18.70;100832.00;;;;2227533;26;20250;-57
2024/04/21 04:35:34;;;;;;;2.50;0.90;;;;;18.70;100833.00;;;;2217861;26;20256;-57
2024/04/21 04:36:34;;;;;;;1.93;0.50;;;;;18.70;100847.00;;;;2211817;26;20248;-58
2024/04/21 04:37:34;;;;;;;1.97;0.50;;;;;18.70;100837.00;;;;2229307;26;20249;-58
2024/04/21 04:38:35;;;;;;;4.27;0.70;;;;;18.70;100837.00;;;;2227307;26;20253;-57
2024/04/21 04:39:35;;;;;;;1.87;0.57;;;;;18.70;100844.00;;;;2218536;26;20298;-58
2024/04/21 04:40:36;;;;;;;1.57;0.53;;;;;18.70;100843.00;;;;2223226;26;20367;-57
2024/04/21 04:41:36;;;;;;;1.50;0.50;;;;;18.70;100831.00;;;;2212335;26;20258;-57
2024/04/21 04:42:36;;;;;;;2.23;0.40;;;;;18.70;100835.00;;;;2218016;26;20255;-58
2024/04/21 04:43:36;;;;;;;8.17;0.70;;;;;18.70;100837.00;;;;2222922;26;20255;-57
2024/04/21 04:44:37;;;;;;;3.03;0.40;;;;;18.70;100839.00;;;;2226978;26;20247;-57
2024/04/21 04:45:37;;;;;;;1.70;0.40;;;;;18.70;100835.00;;;;2223345;26;20247;-58
2024/04/21 04:46:37;;;;;;;1.43;0.40;;;;;18.70;100833.00;;;;2216591;26;20252;-57
2024/04/21 04:47:38;;;;;;;1.73;0.60;;;;;18.70;100836.00;;;;2226753;26;20269;-57
2024/04/21 04:48:38;;;;;;;2.20;0.77;;;;;18.70;100838.00;;;;2218296;26;20353;-57
2024/04/21 04:49:39;;;;;;;2.97;0.70;;;;;18.70;100833.00;;;;2221731;26;20291;-58
2024/04/21 04:50:39;;;;;;;3.10;0.70;;;;;18.70;100835.00;;;;2218469;26;20678;-57
2024/04/21 04:51:39;;;;;;;2.33;0.60;;;;;18.70;100829.00;;;;2215824;26;21078;-58
2024/04/21 04:52:40;;;;;;;1.90;0.50;;;;;18.70;100823.00;;;;2221611;26;20263;-57
2024/04/21 04:53:40;;;;;;;1.83;0.97;;;;;18.70;100836.00;;;;2217398;26;20259;-57
2024/04/21 04:54:40;;;;;;;3.60;0.67;;;;;18.60;100834.00;;;;2222432;26;20255;-57
2024/04/21 04:55:42;;;;;;;1.80;0.40;;;;;18.60;100836.00;;;;2222457;26;20296;-58
2024/04/21 04:56:43;;;;;;;1.80;0.70;;;;;18.60;100830.00;;;;2207013;26;20267;-58
2024/04/21 04:57:43;;;;;;;2.40;0.60;;;;;18.70;100845.00;;;;2218846;26;20247;-57
2024/04/21 04:58:43;;;;;;;1.87;0.50;;;;;18.70;100844.00;;;;2222648;26;20418;-58